Time;durP1;ratioP1;P1;durP2;ratioP2;P2;SDS_P1;SDS_P2;PMS_P1;PMS_P2;Temp;Humidity;BMP_temperature;BMP_pressure;BME280_temperature;BME280_humidity;BME280_pressure;Samples;Min_cycle;Max_cycle;Signal;HPM_P1;HPM_P2
2023/07/21 00:06:29;;;;;;;1999.90;999.90;;;;;;;;;;6718621;88;20228;-82
2023/07/21 00:16:31;;;;;;;1999.90;999.90;;;;;;;;;;6727189;88;20641;-82
2023/07/21 00:26:32;;;;;;;1999.90;999.90;;;;;;;;;;6722224;88;20209;-82
2023/07/21 00:36:33;;;;;;;1999.90;999.90;;;;;;;;;;6725662;88;20216;-83
2023/07/21 00:46:35;;;;;;;1999.90;999.90;;;;;;;;;;6728496;88;20265;-82
2023/07/21 00:56:36;;;;;;;1999.90;999.90;;;;;;;;;;6725310;88;20194;-81
2023/07/21 01:06:39;;;;;;;1999.90;999.90;;;;;;;;;;6724341;88;20285;-82
2023/07/21 01:27:23;;;;;;;1999.90;999.90;;;;;;;;;;6725679;88;20238;-80
2023/07/21 01:37:24;;;;;;;1999.90;999.90;;;;;;;;;;6724909;88;20633;-82
2023/07/21 01:47:26;;;;;;;1999.90;999.90;;;;;;;;;;6725055;88;20287;-79
2023/07/21 01:57:32;;;;;;;1999.90;999.90;;;;;;;;;;6724444;88;20222;-79
2023/07/21 02:07:34;;;;;;;1999.90;999.90;;;;;;;;;;6724349;88;20185;-80
2023/07/21 02:17:36;;;;;;;1999.90;999.90;;;;;;;;;;6724602;88;20193;-79
2023/07/21 02:27:37;;;;;;;1999.90;999.90;;;;;;;;;;6727224;88;20300;-80
2023/07/21 02:37:38;;;;;;;1999.90;999.90;;;;;;;;;;6725389;88;20181;-80
2023/07/21 02:47:39;;;;;;;1999.90;999.90;;;;;;;;;;6724633;88;20235;-79
2023/07/21 02:57:40;;;;;;;1999.90;999.90;;;;;;;;;;6724490;88;20300;-79
2023/07/21 03:07:42;;;;;;;1999.90;999.90;;;;;;;;;;6723901;88;20291;-79
2023/07/21 03:17:43;;;;;;;1999.90;999.90;;;;;;;;;;6723833;88;20220;-79
2023/07/21 03:27:46;;;;;;;1999.90;999.90;;;;;;;;;;6723748;88;20792;-79
2023/07/21 03:37:47;;;;;;;1999.90;999.90;;;;;;;;;;6722711;88;20234;-81
2023/07/21 03:47:49;;;;;;;1999.90;999.90;;;;;;;;;;6722406;88;20645;-80
2023/07/21 03:57:50;;;;;;;1999.90;999.90;;;;;;;;;;6722126;88;20266;-79
2023/07/21 04:07:51;;;;;;;1999.90;999.90;;;;;;;;;;6722554;88;20229;-79
2023/07/21 04:17:52;;;;;;;1999.90;999.90;;;;;;;;;;6724080;88;20855;-80
2023/07/21 04:27:55;;;;;;;1999.90;999.90;;;;;;;;;;6724979;88;20205;-79
2023/07/21 04:37:55;;;;;;;1999.90;999.90;;;;;;;;;;6721914;88;20193;-79
2023/07/21 04:47:57;;;;;;;1999.90;999.90;;;;;;;;;;6721346;88;20196;-79
2023/07/21 04:57:58;;;;;;;1999.90;999.90;;;;;;;;;;6722784;88;20205;-78
2023/07/21 05:08:00;;;;;;;1999.90;999.90;;;;;;;;;;6722555;88;20731;-80
2023/07/21 05:18:01;;;;;;;1999.90;999.90;;;;;;;;;;6720915;88;20196;-79
2023/07/21 05:28:02;;;;;;;1999.90;999.90;;;;;;;;;;6722936;88;20205;-79
2023/07/21 05:38:03;;;;;;;1999.90;999.90;;;;;;;;;;6724593;88;20221;-80
2023/07/21 05:48:04;;;;;;;1999.90;999.90;;;;;;;;;;6723812;88;20210;-79
2023/07/21 05:58:05;;;;;;;1999.90;999.90;;;;;;;;;;6723602;88;20201;-79
2023/07/21 06:08:09;;;;;;;1999.90;999.90;;;;;;;;;;6721723;88;20680;-80
2023/07/21 06:18:10;;;;;;;1999.90;999.90;;;;;;;;;;6719918;88;20194;-79
2023/07/21 06:28:11;;;;;;;1999.90;999.90;;;;;;;;;;6724174;88;20668;-79
2023/07/21 06:38:12;;;;;;;1999.90;999.90;;;;;;;;;;6724052;88;20241;-80
2023/07/21 06:48:13;;;;;;;1999.90;999.90;;;;;;;;;;6722965;88;20245;-79
2023/07/21 06:58:14;;;;;;;1999.90;999.90;;;;;;;;;;6722781;88;20189;-78
2023/07/21 07:18:19;;;;;;;1999.90;999.90;;;;;;;;;;6743883;88;20166;-82
2023/07/21 07:28:21;;;;;;;1999.90;999.90;;;;;;;;;;6741846;88;20530;-80
2023/07/21 07:38:24;;;;;;;1999.90;999.90;;;;;;;;;;6739025;88;20204;-81
2023/07/21 07:58:29;;;;;;;1999.90;999.90;;;;;;;;;;6738026;88;20333;-80
2023/07/21 08:08:30;;;;;;;1999.90;999.90;;;;;;;;;;6741544;88;20215;-83
2023/07/21 08:18:32;;;;;;;1999.90;999.90;;;;;;;;;;6741546;88;20245;-81
2023/07/21 08:28:33;;;;;;;1999.90;999.90;;;;;;;;;;6739379;88;20893;-82
2023/07/21 08:38:34;;;;;;;1999.90;999.90;;;;;;;;;;6740185;88;20632;-81
2023/07/21 08:48:35;;;;;;;1999.90;999.90;;;;;;;;;;6742171;88;20182;-84
2023/07/21 08:58:36;;;;;;;1999.90;999.90;;;;;;;;;;6747731;88;20212;-80
2023/07/21 09:08:37;;;;;;;1999.90;999.90;;;;;;;;;;6734976;88;20650;-82
2023/07/21 09:18:42;;;;;;;1999.90;999.90;;;;;;;;;;6737034;88;20210;-81
2023/07/21 09:28:44;;;;;;;1999.90;999.90;;;;;;;;;;6737104;88;20209;-81
2023/07/21 09:38:45;;;;;;;1999.90;999.90;;;;;;;;;;6737652;88;20189;-82
2023/07/21 09:48:47;;;;;;;1999.90;999.90;;;;;;;;;;6736053;88;20185;-81
2023/07/21 09:58:56;;;;;;;1999.90;999.90;;;;;;;;;;6737247;88;20197;-81
2023/07/21 10:08:57;;;;;;;1999.90;999.90;;;;;;;;;;6737398;88;20196;-81
2023/07/21 10:18:59;;;;;;;1999.90;999.90;;;;;;;;;;6735461;88;20301;-82
2023/07/21 10:29:16;;;;;;;1999.90;999.90;;;;;;;;;;6736396;88;20186;-81
2023/07/21 10:39:19;;;;;;;1999.90;999.90;;;;;;;;;;6713755;88;20211;-81
2023/07/21 10:49:20;;;;;;;1999.90;999.90;;;;;;;;;;6713640;88;20211;-82
2023/07/21 10:59:21;;;;;;;1999.90;999.90;;;;;;;;;;6729674;88;20178;-79
2023/07/21 11:09:23;;;;;;;1999.90;999.90;;;;;;;;;;6749767;88;20668;-80
2023/07/21 11:19:25;;;;;;;1999.90;999.90;;;;;;;;;;6747617;88;20195;-79
2023/07/21 11:29:30;;;;;;;1999.90;999.90;;;;;;;;;;6740811;88;20212;-80
2023/07/21 11:39:31;;;;;;;1999.90;999.90;;;;;;;;;;6735129;88;20219;-80
2023/07/21 11:49:33;;;;;;;1999.90;999.90;;;;;;;;;;6730541;88;20218;-79
2023/07/21 11:59:34;;;;;;;1999.90;999.90;;;;;;;;;;6728799;88;20189;-78
2023/07/21 12:09:36;;;;;;;1999.90;999.90;;;;;;;;;;6730249;88;20739;-76
2023/07/21 12:19:37;;;;;;;1999.90;999.90;;;;;;;;;;6727412;88;20218;-79
2023/07/21 12:29:38;;;;;;;1999.90;999.90;;;;;;;;;;6728165;88;20326;-78
2023/07/21 12:39:39;;;;;;;1999.90;999.90;;;;;;;;;;6720583;88;20217;-79
2023/07/21 12:49:40;;;;;;;1999.90;999.90;;;;;;;;;;6733897;88;20276;-79
2023/07/21 12:59:41;;;;;;;1999.90;999.90;;;;;;;;;;6742497;88;21024;-80
2023/07/21 13:09:42;;;;;;;1999.90;999.90;;;;;;;;;;6725482;88;20198;-79
2023/07/21 13:19:43;;;;;;;1999.90;999.90;;;;;;;;;;6732777;88;20185;-79
2023/07/21 13:29:46;;;;;;;1999.90;999.90;;;;;;;;;;6732164;88;20629;-79
2023/07/21 13:39:47;;;;;;;1999.90;999.90;;;;;;;;;;6726806;88;20660;-79
2023/07/21 13:49:49;;;;;;;1999.90;999.90;;;;;;;;;;6729416;88;20194;-80
2023/07/21 13:59:50;;;;;;;1999.90;999.90;;;;;;;;;;6729675;88;20772;-78
2023/07/21 14:09:51;;;;;;;1999.90;999.90;;;;;;;;;;6733924;88;20236;-78
2023/07/21 14:19:52;;;;;;;1999.90;999.90;;;;;;;;;;6726485;88;20209;-78
2023/07/21 14:29:53;;;;;;;1999.90;999.90;;;;;;;;;;6728089;88;20200;-77
2023/07/21 14:39:55;;;;;;;1999.90;999.90;;;;;;;;;;6729210;88;20281;-79
2023/07/21 14:49:56;;;;;;;1999.90;999.90;;;;;;;;;;6729802;88;20670;-78
2023/07/21 14:59:57;;;;;;;1999.90;999.90;;;;;;;;;;6732714;88;20161;-78
2023/07/21 15:09:58;;;;;;;1999.90;999.90;;;;;;;;;;6735740;88;20206;-78
2023/07/21 15:19:59;;;;;;;1999.90;999.90;;;;;;;;;;6734154;88;20201;-77
2023/07/21 15:30:00;;;;;;;1999.90;999.90;;;;;;;;;;6734177;88;20202;-77
2023/07/21 15:40:05;;;;;;;1999.90;999.90;;;;;;;;;;6728432;88;20214;-77
2023/07/21 15:50:14;;;;;;;1999.90;999.90;;;;;;;;;;6726769;88;20198;-77
2023/07/21 16:00:18;;;;;;;1999.90;999.90;;;;;;;;;;6725655;88;20268;-76
2023/07/21 16:10:19;;;;;;;1999.90;999.90;;;;;;;;;;6725972;88;20270;-77
2023/07/21 16:20:21;;;;;;;1999.90;999.90;;;;;;;;;;6724241;88;20644;-77
2023/07/21 16:30:22;;;;;;;1999.90;999.90;;;;;;;;;;6724959;88;20239;-78
2023/07/21 16:40:23;;;;;;;1999.90;999.90;;;;;;;;;;6728038;88;20170;-77
2023/07/21 16:50:27;;;;;;;1999.90;999.90;;;;;;;;;;6742753;88;20358;-77
2023/07/21 17:00:28;;;;;;;1999.90;999.90;;;;;;;;;;6726332;88;20207;-78
2023/07/21 17:10:29;;;;;;;1999.90;999.90;;;;;;;;;;6732112;88;20166;-78
2023/07/21 17:20:30;;;;;;;1999.90;999.90;;;;;;;;;;6732713;88;20229;-78
2023/07/21 17:30:31;;;;;;;1999.90;999.90;;;;;;;;;;6727455;88;20168;-79
2023/07/21 17:40:32;;;;;;;1999.90;999.90;;;;;;;;;;6737941;88;20206;-79
2023/07/21 17:50:33;;;;;;;1999.90;999.90;;;;;;;;;;6739023;88;20227;-78
2023/07/21 18:00:38;;;;;;;1999.90;999.90;;;;;;;;;;6737924;88;20223;-79
2023/07/21 18:10:39;;;;;;;1999.90;999.90;;;;;;;;;;6738126;88;20233;-80
2023/07/21 18:20:40;;;;;;;1999.90;999.90;;;;;;;;;;6740071;88;20190;-79
2023/07/21 18:30:42;;;;;;;1999.90;999.90;;;;;;;;;;6737860;88;20297;-79
2023/07/21 18:40:43;;;;;;;1999.90;999.90;;;;;;;;;;6726827;88;20229;-79
2023/07/21 18:50:44;;;;;;;1999.90;999.90;;;;;;;;;;6741515;88;20605;-79
2023/07/21 19:00:45;;;;;;;1999.90;999.90;;;;;;;;;;6733468;88;20204;-80
2023/07/21 19:10:46;;;;;;;1999.90;999.90;;;;;;;;;;6745402;77;20180;-75
2023/07/21 19:20:47;;;;;;;1999.90;999.90;;;;;;;;;;6730926;88;20386;-77
2023/07/21 19:30:48;;;;;;;1999.90;999.90;;;;;;;;;;6717309;88;20230;-77
2023/07/21 19:40:49;;;;;;;1999.90;999.90;;;;;;;;;;6721171;88;20197;-78
2023/07/21 19:50:50;;;;;;;1999.90;999.90;;;;;;;;;;6720539;88;20206;-77
2023/07/21 20:00:51;;;;;;;1999.90;999.90;;;;;;;;;;6716452;88;20605;-77
2023/07/21 20:10:52;;;;;;;1999.90;999.90;;;;;;;;;;6716140;88;20315;-78
2023/07/21 20:20:53;;;;;;;1999.90;999.90;;;;;;;;;;6715612;88;20240;-77
2023/07/21 20:30:54;;;;;;;1999.90;999.90;;;;;;;;;;6716296;88;20182;-78
2023/07/21 20:41:02;;;;;;;1999.90;999.90;;;;;;;;;;6714234;88;20193;-78
2023/07/21 20:51:03;;;;;;;1999.90;999.90;;;;;;;;;;6716012;88;20202;-77
2023/07/21 21:01:04;;;;;;;1999.90;999.90;;;;;;;;;;6717833;88;20189;-76
2023/07/21 21:11:07;;;;;;;1999.90;999.90;;;;;;;;;;6725599;88;20229;-77
2023/07/21 21:21:08;;;;;;;1999.90;999.90;;;;;;;;;;6714998;88;20237;-80
2023/07/21 21:31:09;;;;;;;1999.90;999.90;;;;;;;;;;6717661;88;20211;-78
2023/07/21 21:41:10;;;;;;;1999.90;999.90;;;;;;;;;;6726037;88;20280;-78
2023/07/21 21:51:11;;;;;;;1999.90;999.90;;;;;;;;;;6719444;88;20256;-77
2023/07/21 22:01:12;;;;;;;1999.90;999.90;;;;;;;;;;6717718;88;20197;-78
2023/07/21 22:11:13;;;;;;;1999.90;999.90;;;;;;;;;;6717430;88;20250;-78
2023/07/21 22:21:14;;;;;;;1999.90;999.90;;;;;;;;;;6718308;88;20223;-78
2023/07/21 22:31:16;;;;;;;1999.90;999.90;;;;;;;;;;6714095;88;20581;-78
2023/07/21 22:41:17;;;;;;;1999.90;999.90;;;;;;;;;;6717966;88;20315;-78
2023/07/21 22:51:18;;;;;;;1999.90;999.90;;;;;;;;;;6716757;88;20705;-77
2023/07/21 23:01:19;;;;;;;1999.90;999.90;;;;;;;;;;6718318;88;20208;-78
2023/07/21 23:11:20;;;;;;;1999.90;999.90;;;;;;;;;;6722576;88;20213;-78
2023/07/21 23:21:21;;;;;;;1999.90;999.90;;;;;;;;;;6723024;88;20201;-79
2023/07/21 23:31:22;;;;;;;1999.90;999.90;;;;;;;;;;6726409;88;20190;-78
2023/07/21 23:41:23;;;;;;;1999.90;999.90;;;;;;;;;;6721051;88;20716;-78
2023/07/21 23:51:24;;;;;;;1999.90;999.90;;;;;;;;;;6715860;88;20273;-78
